sensor_id;sensor_type;location;lat;lon;timestamp;pressure;altitude;pressure_sealevel;temperature;humidity
18323;BME280;9287;49.456;11.064;2023-01-23T00:01:16;99423.78;;;0.52;100.00
18323;BME280;9287;49.456;11.064;2023-01-23T00:03:45;99424.91;;;0.56;100.00
18323;BME280;9287;49.456;11.064;2023-01-23T00:06:14;99427.56;;;0.51;100.00
18323;BME280;9287;49.456;11.064;2023-01-23T00:08:44;99425.69;;;0.52;100.00
18323;BME280;9287;49.456;11.064;2023-01-23T00:11:16;99431.81;;;0.47;100.00
18323;BME280;9287;49.456;11.064;2023-01-23T00:13:44;99434.00;;;0.50;100.00
18323;BME280;9287;49.456;11.064;2023-01-23T00:16:15;99432.78;;;0.41;100.00
18323;BME280;9287;49.456;11.064;2023-01-23T00:18:44;99425.94;;;0.50;100.00
18323;BME280;9287;49.456;11.064;2023-01-23T00:21:13;99440.28;;;0.39;100.00
18323;BME280;9287;49.456;11.064;2023-01-23T00:23:43;99435.06;;;0.49;100.00
18323;BME280;9287;49.456;11.064;2023-01-23T00:26:15;99441.53;;;0.53;100.00
18323;BME280;9287;49.456;11.064;2023-01-23T00:28:44;99443.16;;;0.54;100.00
18323;BME280;9287;49.456;11.064;2023-01-23T00:31:18;99443.97;;;0.55;100.00
18323;BME280;9287;49.456;11.064;2023-01-23T00:33:47;99440.53;;;0.59;100.00
18323;BME280;9287;49.456;11.064;2023-01-23T00:36:14;99441.34;;;0.60;100.00
18323;BME280;9287;49.456;11.064;2023-01-23T00:38:42;99447.44;;;0.50;100.00
18323;BME280;9287;49.456;11.064;2023-01-23T00:41:10;99439.91;;;0.52;100.00
18323;BME280;9287;49.456;11.064;2023-01-23T00:43:40;99438.91;;;0.58;100.00
18323;BME280;9287;49.456;11.064;2023-01-23T00:46:08;99438.72;;;0.65;100.00
18323;BME280;9287;49.456;11.064;2023-01-23T00:48:36;99440.03;;;0.62;100.00
18323;BME280;9287;49.456;11.064;2023-01-23T00:51:04;99445.41;;;0.62;100.00
18323;BME280;9287;49.456;11.064;2023-01-23T00:53:34;99444.94;;;0.70;100.00
18323;BME280;9287;49.456;11.064;2023-01-23T00:56:02;99448.84;;;0.58;100.00
18323;BME280;9287;49.456;11.064;2023-01-23T00:58:29;99444.91;;;0.65;100.00
18323;BME280;9287;49.456;11.064;2023-01-23T01:00:59;99455.66;;;0.65;100.00
18323;BME280;9287;49.456;11.064;2023-01-23T01:03:27;99457.16;;;0.56;100.00
18323;BME280;9287;49.456;11.064;2023-01-23T01:05:55;99461.53;;;0.62;100.00
18323;BME280;9287;49.456;11.064;2023-01-23T01:08:23;99460.91;;;0.55;100.00
18323;BME280;9287;49.456;11.064;2023-01-23T01:10:51;99461.41;;;0.52;100.00
18323;BME280;9287;49.456;11.064;2023-01-23T01:13:18;99458.72;;;0.52;100.00
18323;BME280;9287;49.456;11.064;2023-01-23T01:15:47;99456.72;;;0.43;100.00
18323;BME280;9287;49.456;11.064;2023-01-23T01:18:18;99457.97;;;0.57;100.00
18323;BME280;9287;49.456;11.064;2023-01-23T01:20:46;99465.78;;;0.58;100.00
18323;BME280;9287;49.456;11.064;2023-01-23T01:23:15;99462.19;;;0.48;100.00
18323;BME280;9287;49.456;11.064;2023-01-23T01:25:43;99471.16;;;0.58;100.00
18323;BME280;9287;49.456;11.064;2023-01-23T01:28:11;99481.91;;;0.58;100.00
18323;BME280;9287;49.456;11.064;2023-01-23T01:30:39;99476.03;;;0.61;100.00
18323;BME280;9287;49.456;11.064;2023-01-23T01:33:07;99479.03;;;0.43;100.00
18323;BME280;9287;49.456;11.064;2023-01-23T01:35:40;99485.97;;;0.61;100.00
18323;BME280;9287;49.456;11.064;2023-01-23T01:38:08;99481.81;;;0.48;100.00
18323;BME280;9287;49.456;11.064;2023-01-23T01:40:36;99479.78;;;0.60;100.00
18323;BME280;9287;49.456;11.064;2023-01-23T01:43:07;99488.81;;;0.49;100.00
18323;BME280;9287;49.456;11.064;2023-01-23T01:46:05;99484.09;;;0.40;100.00
18323;BME280;9287;49.456;11.064;2023-01-23T01:48:35;99482.16;;;0.35;100.00
18323;BME280;9287;49.456;11.064;2023-01-23T01:51:09;99489.16;;;0.36;100.00
18323;BME280;9287;49.456;11.064;2023-01-23T01:53:39;99491.41;;;0.44;100.00
18323;BME280;9287;49.456;11.064;2023-01-23T01:56:10;99492.22;;;0.45;100.00
18323;BME280;9287;49.456;11.064;2023-01-23T01:58:40;99486.28;;;0.43;100.00
18323;BME280;9287;49.456;11.064;2023-01-23T02:01:09;99479.41;;;0.30;100.00
18323;BME280;9287;49.456;11.064;2023-01-23T02:03:37;99492.59;;;0.31;100.00
18323;BME280;9287;49.456;11.064;2023-01-23T02:06:06;99497.09;;;0.26;100.00
18323;BME280;9287;49.456;11.064;2023-01-23T02:08:40;99489.34;;;0.29;100.00
18323;BME280;9287;49.456;11.064;2023-01-23T02:11:11;99498.22;;;0.30;100.00
18323;BME280;9287;49.456;11.064;2023-01-23T02:13:40;99505.81;;;0.33;100.00
18323;BME280;9287;49.456;11.064;2023-01-23T02:16:10;99505.00;;;0.32;100.00
18323;BME280;9287;49.456;11.064;2023-01-23T02:18:41;99495.09;;;0.38;100.00
18323;BME280;9287;49.456;11.064;2023-01-23T02:21:13;99504.16;;;0.32;100.00
18323;BME280;9287;49.456;11.064;2023-01-23T02:23:52;99499.28;;;0.29;100.00
18323;BME280;9287;49.456;11.064;2023-01-23T02:26:26;99495.16;;;0.43;100.00
18323;BME280;9287;49.456;11.064;2023-01-23T02:28:55;99498.91;;;0.42;100.00
18323;BME280;9287;49.456;11.064;2023-01-23T02:31:25;99494.78;;;0.56;100.00
18323;BME280;9287;49.456;11.064;2023-01-23T02:33:55;99498.41;;;0.45;100.00
18323;BME280;9287;49.456;11.064;2023-01-23T02:36:25;99503.16;;;0.38;100.00
18323;BME280;9287;49.456;11.064;2023-01-23T02:39:02;99505.44;;;0.46;100.00
18323;BME280;9287;49.456;11.064;2023-01-23T02:41:33;99509.19;;;0.45;100.00
18323;BME280;9287;49.456;11.064;2023-01-23T02:44:05;99505.91;;;0.43;100.00
18323;BME280;9287;49.456;11.064;2023-01-23T02:46:33;99501.28;;;0.60;100.00
18323;BME280;9287;49.456;11.064;2023-01-23T02:49:01;99507.06;;;0.47;100.00
18323;BME280;9287;49.456;11.064;2023-01-23T02:51:29;99516.19;;;0.46;100.00
18323;BME280;9287;49.456;11.064;2023-01-23T02:53:58;99503.22;;;0.43;100.00
18323;BME280;9287;49.456;11.064;2023-01-23T02:56:26;99503.31;;;0.48;100.00
18323;BME280;9287;49.456;11.064;2023-01-23T02:58:55;99498.75;;;0.49;100.00
18323;BME280;9287;49.456;11.064;2023-01-23T03:01:40;99493.66;;;0.52;100.00
18323;BME280;9287;49.456;11.064;2023-01-23T03:04:07;99487.28;;;0.58;100.00
18323;BME280;9287;49.456;11.064;2023-01-23T03:06:36;99480.28;;;0.57;100.00
18323;BME280;9287;49.456;11.064;2023-01-23T03:09:06;99484.59;;;0.58;100.00
18323;BME280;9287;49.456;11.064;2023-01-23T03:11:36;99481.84;;;0.53;100.00
18323;BME280;9287;49.456;11.064;2023-01-23T03:14:08;99481.34;;;0.56;100.00
18323;BME280;9287;49.456;11.064;2023-01-23T03:16:36;99473.84;;;0.58;100.00
18323;BME280;9287;49.456;11.064;2023-01-23T03:19:06;99476.69;;;0.68;100.00
18323;BME280;9287;49.456;11.064;2023-01-23T03:21:36;99478.34;;;0.75;100.00
18323;BME280;9287;49.456;11.064;2023-01-23T03:24:06;99476.16;;;0.72;100.00
18323;BME280;9287;49.456;11.064;2023-01-23T03:26:37;99462.66;;;0.66;100.00
18323;BME280;9287;49.456;11.064;2023-01-23T03:29:06;99467.16;;;0.83;100.00
18323;BME280;9287;49.456;11.064;2023-01-23T03:31:51;99467.97;;;0.83;100.00
18323;BME280;9287;49.456;11.064;2023-01-23T03:34:19;99466.41;;;0.65;100.00
18323;BME280;9287;49.456;11.064;2023-01-23T03:36:52;99468.72;;;0.79;100.00
18323;BME280;9287;49.456;11.064;2023-01-23T03:39:19;99463.34;;;0.79;100.00
18323;BME280;9287;49.456;11.064;2023-01-23T03:42:05;99475.25;;;0.88;100.00
18323;BME280;9287;49.456;11.064;2023-01-23T03:44:34;99478.16;;;0.81;100.00
18323;BME280;9287;49.456;11.064;2023-01-23T03:47:02;99478.09;;;0.76;100.00
18323;BME280;9287;49.456;11.064;2023-01-23T03:49:30;99474.16;;;0.84;100.00
18323;BME280;9287;49.456;11.064;2023-01-23T03:51:58;99477.78;;;0.73;100.00
18323;BME280;9287;49.456;11.064;2023-01-23T03:54:26;99476.34;;;0.65;100.00
18323;BME280;9287;49.456;11.064;2023-01-23T03:56:54;99477.22;;;0.70;100.00
18323;BME280;9287;49.456;11.064;2023-01-23T03:59:22;99481.03;;;0.75;100.00
18323;BME280;9287;49.456;11.064;2023-01-23T04:01:51;99493.31;;;0.65;100.00
18323;BME280;9287;49.456;11.064;2023-01-23T04:04:19;99492.06;;;0.51;100.00
18323;BME280;9287;49.456;11.064;2023-01-23T04:06:46;99486.53;;;0.41;100.00
18323;BME280;9287;49.456;11.064;2023-01-23T04:09:14;99501.69;;;0.47;100.00
18323;BME280;9287;49.456;11.064;2023-01-23T04:11:42;99497.13;;;0.48;100.00
18323;BME280;9287;49.456;11.064;2023-01-23T04:14:10;99501.19;;;0.50;100.00
18323;BME280;9287;49.456;11.064;2023-01-23T04:16:37;99505.53;;;0.56;100.00
18323;BME280;9287;49.456;11.064;2023-01-23T04:19:07;99508.31;;;0.61;100.00
18323;BME280;9287;49.456;11.064;2023-01-23T04:21:34;99524.50;;;0.66;100.00
18323;BME280;9287;49.456;11.064;2023-01-23T04:24:02;99523.78;;;0.54;100.00
18323;BME280;9287;49.456;11.064;2023-01-23T04:26:30;99525.00;;;0.63;100.00
18323;BME280;9287;49.456;11.064;2023-01-23T04:28:59;99525.31;;;0.45;100.00
18323;BME280;9287;49.456;11.064;2023-01-23T04:31:27;99528.81;;;0.46;100.00
18323;BME280;9287;49.456;11.064;2023-01-23T04:33:55;99529.16;;;0.54;100.00
18323;BME280;9287;49.456;11.064;2023-01-23T04:36:24;99528.94;;;0.34;100.00
18323;BME280;9287;49.456;11.064;2023-01-23T04:38:52;99520.41;;;0.42;100.00
18323;BME280;9287;49.456;11.064;2023-01-23T04:41:23;99524.38;;;0.34;100.00
18323;BME280;9287;49.456;11.064;2023-01-23T04:43:51;99523.53;;;0.34;100.00
18323;BME280;9287;49.456;11.064;2023-01-23T04:46:19;99524.66;;;0.38;100.00
18323;BME280;9287;49.456;11.064;2023-01-23T04:48:47;99524.72;;;0.43;100.00
18323;BME280;9287;49.456;11.064;2023-01-23T04:51:14;99524.97;;;0.42;100.00
18323;BME280;9287;49.456;11.064;2023-01-23T04:53:43;99525.78;;;0.42;100.00
18323;BME280;9287;49.456;11.064;2023-01-23T04:56:11;99526.78;;;0.36;100.00
18323;BME280;9287;49.456;11.064;2023-01-23T04:58:39;99519.28;;;0.38;100.00
18323;BME280;9287;49.456;11.064;2023-01-23T05:01:07;99524.16;;;0.41;100.00
18323;BME280;9287;49.456;11.064;2023-01-23T05:03:35;99527.53;;;0.53;100.00
18323;BME280;9287;49.456;11.064;2023-01-23T05:06:03;99537.19;;;0.49;100.00
18323;BME280;9287;49.456;11.064;2023-01-23T05:08:30;99539.34;;;0.52;100.00
18323;BME280;9287;49.456;11.064;2023-01-23T05:11:00;99542.00;;;0.47;100.00
18323;BME280;9287;49.456;11.064;2023-01-23T05:13:27;99546.31;;;0.48;100.00
18323;BME280;9287;49.456;11.064;2023-01-23T05:15:56;99539.88;;;0.49;100.00
18323;BME280;9287;49.456;11.064;2023-01-23T05:18:24;99556.25;;;0.48;100.00
18323;BME280;9287;49.456;11.064;2023-01-23T05:20:51;99534.50;;;0.49;100.00
18323;BME280;9287;49.456;11.064;2023-01-23T05:23:19;99551.81;;;0.58;100.00
18323;BME280;9287;49.456;11.064;2023-01-23T05:25:47;99552.84;;;0.35;100.00
18323;BME280;9287;49.456;11.064;2023-01-23T05:28:16;99546.16;;;0.38;100.00
18323;BME280;9287;49.456;11.064;2023-01-23T05:30:44;99546.81;;;0.45;100.00
18323;BME280;9287;49.456;11.064;2023-01-23T05:33:12;99546.81;;;0.45;100.00
18323;BME280;9287;49.456;11.064;2023-01-23T05:35:39;99556.56;;;0.51;100.00
18323;BME280;9287;49.456;11.064;2023-01-23T05:38:08;99555.28;;;0.37;100.00
18323;BME280;9287;49.456;11.064;2023-01-23T05:40:36;99554.47;;;0.37;100.00
18323;BME280;9287;49.456;11.064;2023-01-23T05:43:04;99564.47;;;0.41;100.00
18323;BME280;9287;49.456;11.064;2023-01-23T05:45:33;99555.78;;;0.34;100.00
18323;BME280;9287;49.456;11.064;2023-01-23T05:48:01;99564.22;;;0.43;100.00
18323;BME280;9287;49.456;11.064;2023-01-23T05:50:28;99567.59;;;0.33;100.00
18323;BME280;9287;49.456;11.064;2023-01-23T05:52:59;99572.41;;;0.31;100.00
18323;BME280;9287;49.456;11.064;2023-01-23T05:55:26;99584.09;;;0.42;100.00
18323;BME280;9287;49.456;11.064;2023-01-23T05:57:54;99587.59;;;0.42;100.00
18323;BME280;9287;49.456;11.064;2023-01-23T06:00:22;99588.19;;;0.44;100.00
18323;BME280;9287;49.456;11.064;2023-01-23T06:02:51;99589.47;;;0.42;100.00
18323;BME280;9287;49.456;11.064;2023-01-23T06:05:19;99591.56;;;0.56;100.00
18323;BME280;9287;49.456;11.064;2023-01-23T06:07:48;99597.16;;;0.33;100.00
18323;BME280;9287;49.456;11.064;2023-01-23T06:10:16;99595.81;;;0.35;100.00
18323;BME280;9287;49.456;11.064;2023-01-23T06:12:44;99604.78;;;0.41;100.00
18323;BME280;9287;49.456;11.064;2023-01-23T06:15:12;99601.03;;;0.42;100.00
18323;BME280;9287;49.456;11.064;2023-01-23T06:17:40;99618.94;;;0.53;100.00
18323;BME280;9287;49.456;11.064;2023-01-23T06:20:12;99622.97;;;0.51;100.00
18323;BME280;9287;49.456;11.064;2023-01-23T06:22:41;99622.69;;;0.52;100.00
18323;BME280;9287;49.456;11.064;2023-01-23T06:25:09;99629.34;;;0.66;100.00
18323;BME280;9287;49.456;11.064;2023-01-23T06:27:37;99628.72;;;0.59;100.00
18323;BME280;9287;49.456;11.064;2023-01-23T06:30:06;99633.75;;;0.56;100.00
18323;BME280;9287;49.456;11.064;2023-01-23T06:32:34;99642.59;;;0.51;100.00
18323;BME280;9287;49.456;11.064;2023-01-23T06:35:02;99640.38;;;0.48;100.00
18323;BME280;9287;49.456;11.064;2023-01-23T06:37:32;99642.25;;;0.48;100.00
18323;BME280;9287;49.456;11.064;2023-01-23T06:40:00;99647.78;;;0.41;100.00
18323;BME280;9287;49.456;11.064;2023-01-23T06:42:28;99643.66;;;0.50;100.00
18323;BME280;9287;49.456;11.064;2023-01-23T06:44:55;99646.72;;;0.42;100.00
18323;BME280;9287;49.456;11.064;2023-01-23T06:47:23;99652.81;;;0.54;100.00
18323;BME280;9287;49.456;11.064;2023-01-23T06:49:51;99646.88;;;0.52;100.00
18323;BME280;9287;49.456;11.064;2023-01-23T06:52:18;99654.94;;;0.52;100.00
18323;BME280;9287;49.456;11.064;2023-01-23T06:54:47;99652.69;;;0.44;100.00
18323;BME280;9287;49.456;11.064;2023-01-23T06:57:15;99658.06;;;0.44;100.00
18323;BME280;9287;49.456;11.064;2023-01-23T06:59:43;99662.28;;;0.57;100.00
18323;BME280;9287;49.456;11.064;2023-01-23T07:02:11;99667.97;;;0.60;100.00
18323;BME280;9287;49.456;11.064;2023-01-23T07:04:39;99667.03;;;0.50;100.00
18323;BME280;9287;49.456;11.064;2023-01-23T07:07:07;99664.91;;;0.52;100.00
18323;BME280;9287;49.456;11.064;2023-01-23T07:09:34;99672.38;;;0.66;100.00
18323;BME280;9287;49.456;11.064;2023-01-23T07:12:04;99672.22;;;0.56;100.00
18323;BME280;9287;49.456;11.064;2023-01-23T07:14:32;99682.13;;;0.73;100.00
18323;BME280;9287;49.456;11.064;2023-01-23T07:17:00;99674.63;;;0.75;100.00
18323;BME280;9287;49.456;11.064;2023-01-23T07:19:28;99677.22;;;0.69;100.00
18323;BME280;9287;49.456;11.064;2023-01-23T07:21:55;99680.34;;;0.78;100.00
18323;BME280;9287;49.456;11.064;2023-01-23T07:24:23;99675.06;;;0.66;100.00
18323;BME280;9287;49.456;11.064;2023-01-23T07:26:53;99682.63;;;0.69;100.00
18323;BME280;9287;49.456;11.064;2023-01-23T07:29:22;99683.44;;;0.70;100.00
18323;BME280;9287;49.456;11.064;2023-01-23T07:31:50;99678.38;;;0.74;100.00
18323;BME280;9287;49.456;11.064;2023-01-23T07:34:18;99674.78;;;0.85;100.00
18323;BME280;9287;49.456;11.064;2023-01-23T07:36:46;99680.00;;;0.75;100.00
18323;BME280;9287;49.456;11.064;2023-01-23T07:39:14;99676.09;;;0.82;100.00
18323;BME280;9287;49.456;11.064;2023-01-23T07:41:42;99677.06;;;0.76;100.00
18323;BME280;9287;49.456;11.064;2023-01-23T07:44:15;99681.22;;;0.84;100.00
18323;BME280;9287;49.456;11.064;2023-01-23T07:46:46;99693.66;;;0.90;100.00
18323;BME280;9287;49.456;11.064;2023-01-23T07:49:14;99695.75;;;0.83;100.00
18323;BME280;9287;49.456;11.064;2023-01-23T07:51:42;99694.69;;;0.84;100.00
18323;BME280;9287;49.456;11.064;2023-01-23T07:54:10;99689.44;;;0.94;100.00
18323;BME280;9287;49.456;11.064;2023-01-23T07:56:37;99685.19;;;0.98;100.00
18323;BME280;9287;49.456;11.064;2023-01-23T07:59:05;99694.88;;;0.99;100.00
18323;BME280;9287;49.456;11.064;2023-01-23T08:01:33;99686.25;;;0.97;100.00
18323;BME280;9287;49.456;11.064;2023-01-23T08:04:02;99687.81;;;0.93;100.00
18323;BME280;9287;49.456;11.064;2023-01-23T08:06:30;99682.41;;;0.93;100.00
18323;BME280;9287;49.456;11.064;2023-01-23T08:08:59;99680.31;;;0.95;100.00
18323;BME280;9287;49.456;11.064;2023-01-23T08:11:27;99671.84;;;0.86;100.00
18323;BME280;9287;49.456;11.064;2023-01-23T08:13:54;99678.66;;;0.94;100.00
18323;BME280;9287;49.456;11.064;2023-01-23T08:16:22;99678.34;;;0.90;100.00
18323;BME280;9287;49.456;11.064;2023-01-23T08:18:50;99681.81;;;0.86;100.00
18323;BME280;9287;49.456;11.064;2023-01-23T08:21:19;99680.53;;;0.93;100.00
18323;BME280;9287;49.456;11.064;2023-01-23T08:23:47;99687.72;;;0.88;100.00
18323;BME280;9287;49.456;11.064;2023-01-23T08:26:16;99682.88;;;0.85;100.00
18323;BME280;9287;49.456;11.064;2023-01-23T08:28:44;99687.22;;;0.91;100.00
18323;BME280;9287;49.456;11.064;2023-01-23T08:31:12;99693.34;;;1.03;100.00
18323;BME280;9287;49.456;11.064;2023-01-23T08:33:43;99684.19;;;1.04;100.00
18323;BME280;9287;49.456;11.064;2023-01-23T08:36:12;99692.31;;;1.09;100.00
18323;BME280;9287;49.456;11.064;2023-01-23T08:38:41;99692.97;;;1.16;100.00
18323;BME280;9287;49.456;11.064;2023-01-23T08:41:09;99695.69;;;1.21;100.00
18323;BME280;9287;49.456;11.064;2023-01-23T08:43:38;99700.69;;;0.91;100.00
18323;BME280;9287;49.456;11.064;2023-01-23T08:46:07;99703.09;;;1.09;100.00
18323;BME280;9287;49.456;11.064;2023-01-23T08:48:36;99703.72;;;1.16;100.00
18323;BME280;9287;49.456;11.064;2023-01-23T08:51:05;99701.09;;;1.21;100.00
18323;BME280;9287;49.456;11.064;2023-01-23T08:53:34;99698.97;;;1.23;100.00
18323;BME280;9287;49.456;11.064;2023-01-23T08:56:05;99691.47;;;1.25;100.00
18323;BME280;9287;49.456;11.064;2023-01-23T08:58:33;99698.69;;;1.20;100.00
18323;BME280;9287;49.456;11.064;2023-01-23T09:01:01;99702.22;;;1.25;100.00
18323;BME280;9287;49.456;11.064;2023-01-23T09:03:29;99696.53;;;1.22;100.00
18323;BME280;9287;49.456;11.064;2023-01-23T09:05:59;99699.50;;;1.20;100.00
18323;BME280;9287;49.456;11.064;2023-01-23T09:08:27;99697.97;;;1.29;100.00
18323;BME280;9287;49.456;11.064;2023-01-23T09:10:58;99702.53;;;1.29;100.00
18323;BME280;9287;49.456;11.064;2023-01-23T09:13:28;99697.34;;;1.22;100.00
18323;BME280;9287;49.456;11.064;2023-01-23T09:15:55;99697.84;;;1.19;100.00
18323;BME280;9287;49.456;11.064;2023-01-23T09:18:24;99709.25;;;1.26;100.00
18323;BME280;9287;49.456;11.064;2023-01-23T09:20:52;99700.75;;;1.34;100.00
18323;BME280;9287;49.456;11.064;2023-01-23T09:23:21;99706.13;;;1.34;100.00
18323;BME280;9287;49.456;11.064;2023-01-23T09:25:49;99697.22;;;1.56;100.00
18323;BME280;9287;49.456;11.064;2023-01-23T09:28:16;99696.91;;;1.52;100.00
18323;BME280;9287;49.456;11.064;2023-01-23T09:30:45;99697.09;;;1.46;100.00
18323;BME280;9287;49.456;11.064;2023-01-23T09:33:13;99695.34;;;1.34;100.00
18323;BME280;9287;49.456;11.064;2023-01-23T09:35:42;99688.19;;;1.23;100.00
18323;BME280;9287;49.456;11.064;2023-01-23T09:38:10;99689.34;;;1.27;100.00
18323;BME280;9287;49.456;11.064;2023-01-23T09:40:45;99697.00;;;1.35;100.00
18323;BME280;9287;49.456;11.064;2023-01-23T09:43:21;99693.41;;;1.30;100.00
18323;BME280;9287;49.456;11.064;2023-01-23T09:46:06;99689.22;;;1.17;100.00
18323;BME280;9287;49.456;11.064;2023-01-23T09:48:41;99682.56;;;1.47;100.00
18323;BME280;9287;49.456;11.064;2023-01-23T09:51:14;99688.06;;;1.57;100.00
18323;BME280;9287;49.456;11.064;2023-01-23T09:53:44;99691.41;;;1.42;100.00
18323;BME280;9287;49.456;11.064;2023-01-23T09:56:21;99700.34;;;1.48;100.00
18323;BME280;9287;49.456;11.064;2023-01-23T09:58:59;99697.91;;;1.24;100.00
18323;BME280;9287;49.456;11.064;2023-01-23T10:01:30;99683.63;;;1.46;100.00
18323;BME280;9287;49.456;11.064;2023-01-23T10:03:58;99684.31;;;1.58;100.00
18323;BME280;9287;49.456;11.064;2023-01-23T10:06:28;99681.50;;;1.69;100.00
18323;BME280;9287;49.456;11.064;2023-01-23T10:09:20;99685.56;;;1.72;100.00
18323;BME280;9287;49.456;11.064;2023-01-23T10:11:56;99682.69;;;1.57;100.00
18323;BME280;9287;49.456;11.064;2023-01-23T10:14:40;99675.22;;;1.64;100.00
18323;BME280;9287;49.456;11.064;2023-01-23T10:17:21;99679.16;;;1.78;100.00
18323;BME280;9287;49.456;11.064;2023-01-23T10:20:13;99677.00;;;1.80;100.00
18323;BME280;9287;49.456;11.064;2023-01-23T10:22:46;99671.84;;;2.00;100.00
18323;BME280;9287;49.456;11.064;2023-01-23T10:25:20;99671.78;;;1.95;100.00
18323;BME280;9287;49.456;11.064;2023-01-23T10:27:50;99668.78;;;2.19;100.00
18323;BME280;9287;49.456;11.064;2023-01-23T10:30:22;99663.38;;;2.19;100.00
18323;BME280;9287;49.456;11.064;2023-01-23T10:32:56;99669.00;;;2.49;100.00
18323;BME280;9287;49.456;11.064;2023-01-23T10:35:31;99661.66;;;2.82;100.00
18323;BME280;9287;49.456;11.064;2023-01-23T10:38:10;99666.03;;;2.88;100.00
18323;BME280;9287;49.456;11.064;2023-01-23T10:40:38;99672.47;;;2.82;100.00
18323;BME280;9287;49.456;11.064;2023-01-23T10:43:25;99663.13;;;2.99;100.00
18323;BME280;9287;49.456;11.064;2023-01-23T10:45:53;99662.19;;;2.78;100.00
18323;BME280;9287;49.456;11.064;2023-01-23T10:48:39;99665.97;;;2.77;100.00
18323;BME280;9287;49.456;11.064;2023-01-23T10:51:27;99659.09;;;2.55;100.00
18323;BME280;9287;49.456;11.064;2023-01-23T10:54:00;99672.78;;;2.48;100.00
18323;BME280;9287;49.456;11.064;2023-01-23T10:56:33;99667.00;;;2.71;100.00
18323;BME280;9287;49.456;11.064;2023-01-23T10:59:04;99663.28;;;2.83;100.00
18323;BME280;9287;49.456;11.064;2023-01-23T11:01:34;99660.56;;;2.77;100.00
18323;BME280;9287;49.456;11.064;2023-01-23T11:04:16;99662.69;;;2.70;100.00
18323;BME280;9287;49.456;11.064;2023-01-23T11:06:59;99663.13;;;2.94;100.00
18323;BME280;9287;49.456;11.064;2023-01-23T11:09:27;99658.56;;;3.05;100.00
18323;BME280;9287;49.456;11.064;2023-01-23T11:12:01;99658.53;;;3.00;100.00
18323;BME280;9287;49.456;11.064;2023-01-23T11:14:30;99644.03;;;3.11;100.00
18323;BME280;9287;49.456;11.064;2023-01-23T11:17:00;99644.66;;;3.28;100.00
18323;BME280;9287;49.456;11.064;2023-01-23T11:19:31;99652.25;;;3.46;100.00
18323;BME280;9287;49.456;11.064;2023-01-23T11:22:01;99642.56;;;3.56;100.00
18323;BME280;9287;49.456;11.064;2023-01-23T11:24:33;99647.47;;;3.74;100.00
18323;BME280;9287;49.456;11.064;2023-01-23T11:27:16;99642.59;;;3.71;100.00
18323;BME280;9287;49.456;11.064;2023-01-23T11:30:02;99635.88;;;3.89;100.00
18323;BME280;9287;49.456;11.064;2023-01-23T11:32:45;99646.69;;;3.78;100.00
18323;BME280;9287;49.456;11.064;2023-01-23T11:35:19;99645.81;;;3.53;100.00
18323;BME280;9287;49.456;11.064;2023-01-23T11:37:48;99638.78;;;3.57;100.00
18323;BME280;9287;49.456;11.064;2023-01-23T11:40:18;99634.44;;;3.50;100.00
18323;BME280;9287;49.456;11.064;2023-01-23T11:42:46;99636.03;;;3.36;100.00
18323;BME280;9287;49.456;11.064;2023-01-23T11:45:27;99631.25;;;3.59;100.00
18323;BME280;9287;49.456;11.064;2023-01-23T11:48:13;99628.03;;;3.77;100.00
18323;BME280;9287;49.456;11.064;2023-01-23T11:50:48;99615.59;;;3.81;100.00
18323;BME280;9287;49.456;11.064;2023-01-23T11:53:27;99616.69;;;3.85;100.00
18323;BME280;9287;49.456;11.064;2023-01-23T11:56:24;99610.22;;;4.06;100.00
18323;BME280;9287;49.456;11.064;2023-01-23T12:02:17;99608.59;;;3.90;100.00
18323;BME280;9287;49.456;11.064;2023-01-23T12:04:59;99597.78;;;4.00;100.00
18323;BME280;9287;49.456;11.064;2023-01-23T12:07:36;99601.03;;;3.92;100.00
18323;BME280;9287;49.456;11.064;2023-01-23T12:10:21;99602.13;;;4.06;100.00
18323;BME280;9287;49.456;11.064;2023-01-23T12:13:01;99606.72;;;3.96;100.00
18323;BME280;9287;49.456;11.064;2023-01-23T12:15:40;99597.50;;;4.27;100.00
18323;BME280;9287;49.456;11.064;2023-01-23T12:18:19;99610.19;;;4.52;100.00
18323;BME280;9287;49.456;11.064;2023-01-23T12:20:55;99583.63;;;4.69;100.00
18323;BME280;9287;49.456;11.064;2023-01-23T12:23:35;99591.69;;;4.95;100.00
18323;BME280;9287;49.456;11.064;2023-01-23T12:26:12;99582.44;;;5.06;100.00
18323;BME280;9287;49.456;11.064;2023-01-23T12:31:55;99573.72;;;5.68;100.00
18323;BME280;9287;49.456;11.064;2023-01-23T12:34:46;99572.13;;;6.59;100.00
18323;BME280;9287;49.456;11.064;2023-01-23T12:37:27;99557.19;;;7.28;94.09
18323;BME280;9287;49.456;11.064;2023-01-23T12:40:09;99558.47;;;7.12;93.75
18323;BME280;9287;49.456;11.064;2023-01-23T12:42:45;99562.03;;;6.64;95.37
18323;BME280;9287;49.456;11.064;2023-01-23T12:45:19;99557.09;;;6.43;96.29
18323;BME280;9287;49.456;11.064;2023-01-23T12:47:54;99550.69;;;6.05;99.32
18323;BME280;9287;49.456;11.064;2023-01-23T12:50:34;99535.41;;;5.80;100.00
18323;BME280;9287;49.456;11.064;2023-01-23T12:53:07;99547.72;;;5.18;100.00
18323;BME280;9287;49.456;11.064;2023-01-23T12:55:40;99548.22;;;4.50;100.00
18323;BME280;9287;49.456;11.064;2023-01-23T12:58:14;99553.94;;;4.44;100.00
18323;BME280;9287;49.456;11.064;2023-01-23T13:00:53;99545.84;;;4.39;100.00
18323;BME280;9287;49.456;11.064;2023-01-23T13:03:44;99542.59;;;4.42;100.00
18323;BME280;9287;49.456;11.064;2023-01-23T13:06:27;99528.03;;;4.28;100.00
18323;BME280;9287;49.456;11.064;2023-01-23T13:09:09;99529.59;;;4.39;100.00
18323;BME280;9287;49.456;11.064;2023-01-23T13:11:56;99516.34;;;4.42;100.00
18323;BME280;9287;49.456;11.064;2023-01-23T13:14:37;99523.66;;;4.42;100.00
18323;BME280;9287;49.456;11.064;2023-01-23T13:17:34;99523.19;;;4.99;100.00
18323;BME280;9287;49.456;11.064;2023-01-23T13:20:25;99523.53;;;4.77;100.00
18323;BME280;9287;49.456;11.064;2023-01-23T13:23:32;99525.25;;;5.56;100.00
18323;BME280;9287;49.456;11.064;2023-01-23T13:26:33;99535.00;;;5.57;100.00
18323;BME280;9287;49.456;11.064;2023-01-23T13:29:03;99535.63;;;5.49;100.00